createdAt,value
2023-04-28T00:00:11.574Z,4.07
2023-04-28T00:01:11.553Z,4.10
2023-04-28T00:02:11.544Z,4.10
2023-04-28T00:03:11.765Z,4.14
2023-04-28T00:04:11.894Z,4.18
2023-04-28T00:05:11.605Z,4.16
2023-04-28T00:06:11.512Z,4.14
2023-04-28T00:07:11.457Z,4.15
2023-04-28T00:08:11.441Z,4.14
2023-04-28T00:09:11.490Z,4.14
2023-04-28T00:10:11.412Z,4.14
2023-04-28T00:11:11.407Z,4.15
2023-04-28T00:12:11.433Z,4.14
2023-04-28T00:13:11.395Z,4.08
2023-04-28T00:14:11.407Z,4.06
2023-04-28T00:15:11.356Z,4.06
2023-04-28T00:16:11.465Z,4.06
2023-04-28T00:17:11.404Z,4.07
2023-04-28T00:18:11.408Z,4.08
2023-04-28T00:19:11.305Z,4.12
2023-04-28T00:20:11.293Z,4.12
2023-04-28T00:21:11.292Z,4.12
2023-04-28T00:22:11.272Z,4.08
2023-04-28T00:23:11.265Z,4.07
2023-04-28T00:24:11.247Z,4.04
2023-04-28T00:25:11.242Z,4.03
2023-04-28T00:26:11.224Z,4.07
2023-04-28T00:27:11.226Z,4.07
2023-04-28T00:28:12.766Z,4.06
2023-04-28T00:29:11.186Z,4.04
2023-04-28T00:30:11.172Z,4.01
2023-04-28T00:31:11.202Z,3.98
2023-04-28T00:32:11.226Z,3.96
2023-04-28T00:33:11.190Z,3.92
2023-04-28T00:34:11.120Z,3.83
2023-04-28T00:35:11.097Z,3.79
2023-04-28T00:36:11.109Z,3.71
2023-04-28T00:37:11.074Z,3.62
2023-04-28T00:38:11.064Z,3.61
2023-04-28T00:39:11.047Z,3.57
2023-04-28T00:40:11.036Z,3.62
2023-04-28T00:41:11.113Z,3.64
2023-04-28T00:42:11.003Z,3.65
2023-04-28T00:43:11.009Z,3.64
2023-04-28T00:44:10.997Z,3.62
2023-04-28T00:45:10.967Z,3.61
2023-04-28T00:46:10.978Z,3.50
2023-04-28T00:47:10.930Z,3.52
2023-04-28T00:48:10.939Z,3.47
2023-04-28T00:49:10.923Z,3.47
2023-04-28T00:50:10.921Z,3.50
2023-04-28T00:51:10.888Z,3.49
2023-04-28T00:52:10.883Z,3.47
2023-04-28T00:53:10.866Z,3.46
2023-04-28T00:54:10.850Z,3.47
2023-04-28T00:55:10.827Z,3.47
2023-04-28T00:56:10.834Z,3.47
2023-04-28T00:57:10.829Z,3.50
2023-04-28T00:58:10.792Z,3.52
2023-04-28T00:59:10.785Z,3.54
2023-04-28T01:00:10.782Z,3.53
2023-04-28T01:01:10.838Z,3.57
2023-04-28T01:02:10.742Z,3.54
2023-04-28T01:03:10.873Z,3.50
2023-04-28T01:04:10.914Z,3.50
2023-04-28T01:05:10.726Z,3.50
2023-04-28T01:06:10.722Z,3.52
2023-04-28T01:07:10.716Z,3.49
2023-04-28T01:08:10.690Z,3.46
2023-04-28T01:09:10.661Z,3.43
2023-04-28T01:10:10.663Z,3.42
2023-04-28T01:11:10.639Z,3.36
2023-04-28T01:12:10.622Z,3.36
2023-04-28T01:13:10.630Z,3.31
2023-04-28T01:14:10.601Z,3.25
2023-04-28T01:15:10.590Z,3.24
2023-04-28T01:16:10.618Z,3.24
2023-04-28T01:17:10.624Z,3.24
2023-04-28T01:18:10.624Z,3.23
2023-04-28T01:19:10.545Z,3.13
2023-04-28T01:20:10.534Z,3.13
2023-04-28T01:21:10.495Z,3.15
2023-04-28T01:22:10.505Z,3.18
2023-04-28T01:23:10.488Z,3.18
2023-04-28T01:24:10.476Z,3.23
2023-04-28T01:25:10.452Z,3.30
2023-04-28T01:26:10.452Z,3.36
2023-04-28T01:27:10.450Z,3.42
2023-04-28T01:28:10.411Z,3.46
2023-04-28T01:29:10.435Z,3.47
2023-04-28T01:30:10.402Z,3.49
2023-04-28T01:31:10.430Z,3.46
2023-04-28T01:32:10.398Z,3.44
2023-04-28T01:33:10.428Z,3.39
2023-04-28T01:34:10.332Z,3.33
2023-04-28T01:35:10.349Z,3.31
2023-04-28T01:36:10.326Z,3.30
2023-04-28T01:37:10.337Z,3.24
2023-04-28T01:38:10.304Z,3.21
2023-04-28T01:39:10.305Z,3.21
2023-04-28T01:40:10.283Z,3.20
2023-04-28T01:41:10.274Z,3.06
2023-04-28T01:42:10.247Z,2.92
2023-04-28T01:43:10.274Z,2.79
2023-04-28T01:44:10.227Z,2.76
2023-04-28T01:45:10.215Z,2.79
2023-04-28T01:46:10.257Z,2.91
2023-04-28T01:47:10.185Z,2.92
2023-04-28T01:48:10.215Z,2.97
2023-04-28T01:49:10.157Z,3.02
2023-04-28T01:50:10.143Z,3.02
2023-04-28T01:51:10.141Z,3.00
2023-04-28T01:52:10.127Z,3.03
2023-04-28T01:53:10.105Z,2.98
2023-04-28T01:54:10.101Z,3.03
2023-04-28T01:55:10.092Z,3.05
2023-04-28T01:56:10.073Z,3.06
2023-04-28T01:57:10.060Z,3.06
2023-04-28T01:58:10.054Z,3.05
2023-04-28T01:59:10.045Z,3.02
2023-04-28T02:00:10.022Z,3.07
2023-04-28T02:01:10.046Z,3.10
2023-04-28T02:02:09.996Z,3.10
2023-04-28T02:03:10.101Z,3.16
2023-04-28T02:04:10.117Z,3.15
2023-04-28T02:05:09.953Z,3.12
2023-04-28T02:06:09.933Z,3.12
2023-04-28T02:07:09.947Z,3.15
2023-04-28T02:08:09.918Z,3.20
2023-04-28T02:09:09.938Z,3.25
2023-04-28T02:10:09.904Z,3.25
2023-04-28T02:11:09.875Z,3.21
2023-04-28T02:12:09.872Z,3.24
2023-04-28T02:13:09.863Z,3.27
2023-04-28T02:14:09.844Z,3.31
2023-04-28T02:15:09.848Z,3.33
2023-04-28T02:16:09.838Z,3.39
2023-04-28T02:17:09.799Z,3.43
2023-04-28T02:18:09.809Z,3.40
2023-04-28T02:19:09.782Z,3.43
2023-04-28T02:20:09.785Z,3.47
2023-04-28T02:21:09.764Z,3.50
2023-04-28T02:22:09.755Z,3.53
2023-04-28T02:23:09.766Z,3.54
2023-04-28T02:24:09.711Z,3.54
2023-04-28T02:25:09.695Z,3.53
2023-04-28T02:26:09.691Z,3.58
2023-04-28T02:27:09.675Z,3.60
2023-04-28T02:28:09.656Z,3.60
2023-04-28T02:29:09.671Z,3.60
2023-04-28T02:30:09.643Z,3.61
2023-04-28T02:31:09.724Z,3.62
2023-04-28T02:32:09.603Z,3.65
2023-04-28T02:33:09.672Z,3.68
2023-04-28T02:34:09.617Z,3.67
2023-04-28T02:35:09.576Z,3.67
2023-04-28T02:36:09.599Z,3.65
2023-04-28T02:37:09.554Z,3.64
2023-04-28T02:38:09.528Z,3.60
2023-04-28T02:39:09.547Z,3.57
2023-04-28T02:40:09.521Z,3.61
2023-04-28T02:41:09.550Z,3.64
2023-04-28T02:42:09.491Z,3.67
2023-04-28T02:43:09.480Z,3.64
2023-04-28T02:44:09.454Z,3.61
2023-04-28T02:45:09.456Z,3.53
2023-04-28T02:46:09.471Z,3.49
2023-04-28T02:47:09.545Z,3.50
2023-04-28T02:48:09.452Z,3.53
2023-04-28T02:49:09.390Z,3.57
2023-04-28T02:50:09.408Z,3.52
2023-04-28T02:51:09.386Z,3.50
2023-04-28T02:52:09.349Z,3.52
2023-04-28T02:53:09.341Z,3.46
2023-04-28T02:54:09.346Z,3.46
2023-04-28T02:55:09.370Z,3.46
2023-04-28T02:56:09.296Z,3.47
2023-04-28T02:57:09.315Z,3.52
2023-04-28T02:58:09.279Z,3.53
2023-04-28T02:59:09.278Z,3.53
2023-04-28T03:00:09.530Z,3.57
2023-04-28T03:01:09.309Z,3.61
2023-04-28T03:02:09.221Z,3.61
2023-04-28T03:03:16.767Z,3.60
2023-04-28T03:04:09.454Z,3.61
2023-04-28T03:05:09.209Z,3.58
2023-04-28T03:06:09.276Z,3.58
2023-04-28T03:07:09.189Z,3.60
2023-04-28T03:08:09.179Z,3.61
2023-04-28T03:09:09.193Z,3.60
2023-04-28T03:10:09.160Z,3.61
2023-04-28T03:11:09.118Z,3.61
2023-04-28T03:12:09.241Z,3.60
2023-04-28T03:13:09.133Z,3.60
2023-04-28T03:14:09.090Z,3.61
2023-04-28T03:15:09.102Z,3.61
2023-04-28T03:16:16.107Z,3.62
2023-04-28T03:17:09.068Z,3.64
2023-04-28T03:18:09.057Z,3.62
2023-04-28T03:19:09.039Z,3.64
2023-04-28T03:20:09.055Z,3.65
2023-04-28T03:21:09.012Z,3.65
2023-04-28T03:22:08.979Z,3.71
2023-04-28T03:23:08.984Z,3.70
2023-04-28T03:24:08.969Z,3.68
2023-04-28T03:25:09.022Z,3.67
2023-04-28T03:26:08.954Z,3.62
2023-04-28T03:27:09.075Z,3.52
2023-04-28T03:28:08.935Z,3.52
2023-04-28T03:29:08.934Z,3.54
2023-04-28T03:30:08.911Z,3.58
2023-04-28T03:31:08.879Z,3.60
2023-04-28T03:32:08.899Z,3.58
2023-04-28T03:33:08.917Z,3.60
2023-04-28T03:34:08.848Z,3.62
2023-04-28T03:35:08.831Z,3.65
2023-04-28T03:36:08.802Z,3.70
2023-04-28T03:37:08.836Z,3.72
2023-04-28T03:38:08.792Z,3.78
2023-04-28T03:39:08.828Z,3.82
2023-04-28T03:40:08.770Z,3.83
2023-04-28T03:41:08.811Z,3.88
2023-04-28T03:42:08.751Z,3.89
2023-04-28T03:43:08.768Z,3.94
2023-04-28T03:44:08.740Z,4.00
2023-04-28T03:45:08.712Z,4.06
2023-04-28T03:46:08.785Z,4.10
2023-04-28T03:47:08.704Z,4.12
2023-04-28T03:48:08.693Z,4.15
2023-04-28T03:49:08.667Z,4.16
2023-04-28T03:50:08.649Z,4.15
2023-04-28T03:51:08.660Z,4.12
2023-04-28T03:52:08.625Z,4.14
2023-04-28T03:53:08.609Z,4.18
2023-04-28T03:54:08.583Z,4.21
2023-04-28T03:55:08.605Z,4.18
2023-04-28T03:56:08.598Z,4.21
2023-04-28T03:57:08.577Z,4.21
2023-04-28T03:58:08.584Z,4.21
2023-04-28T03:59:08.583Z,4.19
2023-04-28T04:00:08.513Z,4.21
2023-04-28T04:01:08.512Z,4.26
2023-04-28T04:02:08.553Z,4.29
2023-04-28T04:03:08.609Z,4.36
2023-04-28T04:04:08.903Z,4.39
2023-04-28T04:05:08.660Z,4.37
2023-04-28T04:06:08.428Z,4.42
2023-04-28T04:07:08.440Z,4.43
2023-04-28T04:08:08.403Z,4.44
2023-04-28T04:09:08.405Z,4.44
2023-04-28T04:10:08.391Z,4.44
2023-04-28T04:11:08.383Z,4.43
2023-04-28T04:12:08.363Z,4.44
2023-04-28T04:13:08.331Z,4.42
2023-04-28T04:14:08.348Z,4.42
2023-04-28T04:15:08.356Z,4.42
2023-04-28T04:16:08.384Z,4.40
2023-04-28T04:17:08.315Z,4.39
2023-04-28T04:18:08.356Z,4.37
2023-04-28T04:19:08.314Z,4.39
2023-04-28T04:20:08.280Z,4.39
2023-04-28T04:21:08.259Z,4.43
2023-04-28T04:22:08.235Z,4.51
2023-04-28T04:23:08.256Z,4.54
2023-04-28T04:24:08.208Z,4.55
2023-04-28T04:25:08.208Z,4.58
2023-04-28T04:26:08.200Z,4.61
2023-04-28T04:27:08.176Z,4.61
2023-04-28T04:28:08.181Z,4.59
2023-04-28T04:29:08.153Z,4.59
2023-04-28T04:30:08.159Z,4.57
2023-04-28T04:31:08.173Z,4.59
2023-04-28T04:32:08.087Z,4.65
2023-04-28T04:33:08.139Z,4.73
2023-04-28T04:34:08.057Z,4.76
2023-04-28T04:35:08.075Z,4.77
2023-04-28T04:36:08.026Z,4.79
2023-04-28T04:37:08.070Z,4.83
2023-04-28T04:38:08.085Z,4.88
2023-04-28T04:39:08.030Z,4.92
2023-04-28T04:40:07.988Z,4.99
2023-04-28T04:41:08.019Z,4.99
2023-04-28T04:42:23.236Z,5.02
2023-04-28T04:43:09.005Z,5.04
2023-04-28T04:44:07.963Z,5.05
2023-04-28T04:45:07.942Z,5.04
2023-04-28T04:46:08.039Z,5.07
2023-04-28T04:47:07.893Z,5.13
2023-04-28T04:48:08.027Z,5.17
2023-04-28T04:49:07.917Z,5.17
2023-04-28T04:50:07.892Z,5.19
2023-04-28T04:51:07.859Z,5.17
2023-04-28T04:52:07.852Z,5.17
2023-04-28T04:53:10.584Z,5.19
2023-04-28T04:54:08.802Z,5.20
2023-04-28T04:55:07.813Z,5.20
2023-04-28T04:56:07.801Z,5.22
2023-04-28T04:57:07.840Z,5.23
2023-04-28T04:58:07.758Z,5.23
2023-04-28T04:59:07.782Z,5.25
2023-04-28T05:00:07.731Z,5.23
2023-04-28T05:01:07.751Z,5.23
2023-04-28T05:02:07.796Z,5.23
2023-04-28T05:03:07.944Z,5.20
2023-04-28T05:04:08.140Z,5.22
2023-04-28T05:05:19.703Z,5.20
2023-04-28T05:06:08.661Z,5.19
2023-04-28T05:07:07.665Z,5.20
2023-04-28T05:08:07.665Z,5.22
2023-04-28T05:09:07.637Z,5.20
2023-04-28T05:10:07.617Z,5.23
2023-04-28T05:11:07.641Z,5.27
2023-04-28T05:12:07.630Z,5.32
2023-04-28T05:13:07.570Z,5.37
2023-04-28T05:14:07.569Z,5.45
2023-04-28T05:15:07.571Z,5.52
2023-04-28T05:16:07.540Z,5.56
2023-04-28T05:17:07.698Z,5.59
2023-04-28T05:18:07.522Z,5.64
2023-04-28T05:19:07.503Z,5.73
2023-04-28T05:20:07.498Z,5.77
2023-04-28T05:21:07.496Z,5.82
2023-04-28T05:22:07.487Z,5.88
2023-04-28T05:23:09.172Z,5.91
2023-04-28T05:24:09.355Z,5.92
2023-04-28T05:25:09.052Z,5.98
2023-04-28T05:26:09.217Z,6.03
2023-04-28T05:27:08.885Z,6.07
2023-04-28T05:28:09.079Z,6.11
2023-04-28T05:29:09.252Z,6.16
2023-04-28T05:30:08.919Z,6.16
2023-04-28T05:31:09.121Z,6.21
2023-04-28T05:32:09.319Z,6.21
2023-04-28T05:33:09.039Z,6.25
2023-04-28T05:34:09.136Z,6.28
2023-04-28T05:35:08.802Z,6.30
2023-04-28T05:36:08.963Z,6.35
2023-04-28T05:37:09.122Z,6.41
2023-04-28T05:38:08.820Z,6.47
2023-04-28T05:39:08.983Z,6.50
2023-04-28T05:40:09.224Z,6.56
2023-04-28T05:41:08.841Z,6.61
2023-04-28T05:42:09.011Z,6.65
2023-04-28T05:43:09.169Z,6.69
2023-04-28T05:44:08.865Z,6.73
2023-04-28T05:45:09.063Z,6.79
2023-04-28T05:46:18.190Z,6.84
2023-04-28T05:47:09.950Z,6.89
2023-04-28T05:48:09.125Z,6.97
2023-04-28T05:49:08.775Z,7.02
2023-04-28T05:50:09.954Z,7.07
2023-04-28T05:51:08.652Z,7.15
2023-04-28T05:52:08.842Z,7.16
2023-04-28T05:53:09.003Z,7.22
2023-04-28T05:54:08.703Z,7.26
2023-04-28T05:55:07.028Z,7.32
2023-04-28T05:56:08.682Z,7.35
2023-04-28T05:57:08.843Z,7.40
2023-04-28T05:58:08.533Z,7.45
2023-04-28T05:59:08.734Z,7.50
2023-04-28T06:00:08.921Z,7.55
2023-04-28T06:01:08.592Z,7.62
2023-04-28T06:02:08.813Z,7.67
2023-04-28T06:03:08.057Z,7.74
2023-04-28T06:04:08.777Z,7.78
2023-04-28T06:05:08.974Z,7.85
2023-04-28T06:06:10.194Z,7.92
2023-04-28T06:07:08.682Z,7.97
2023-04-28T06:08:08.865Z,8.03
2023-04-28T06:09:08.577Z,8.08
2023-04-28T06:10:08.741Z,8.15
2023-04-28T06:11:09.430Z,8.18
2023-04-28T06:12:08.619Z,8.22
2023-04-28T06:13:08.781Z,8.26
2023-04-28T06:14:08.440Z,8.32
2023-04-28T06:15:08.626Z,8.37
2023-04-28T06:16:08.347Z,8.44
2023-04-28T06:17:08.505Z,8.48
2023-04-28T06:18:08.742Z,8.54
2023-04-28T06:19:08.383Z,8.58
2023-04-28T06:20:08.565Z,8.65
2023-04-28T06:21:08.251Z,8.71
2023-04-28T06:22:08.449Z,8.76
2023-04-28T06:23:08.645Z,8.83
2023-04-28T06:24:08.301Z,8.87
2023-04-28T06:25:08.502Z,8.90
2023-04-28T06:26:08.651Z,8.96
2023-04-28T06:27:08.282Z,9.02
2023-04-28T06:28:08.483Z,9.10
2023-04-28T06:29:08.133Z,9.15
2023-04-28T06:30:08.325Z,9.23
2023-04-28T06:31:08.515Z,9.27
2023-04-28T06:32:08.159Z,9.34
2023-04-28T06:33:08.326Z,9.40
2023-04-28T06:34:08.510Z,9.46
2023-04-28T06:35:08.174Z,9.53
2023-04-28T06:36:08.341Z,9.60
2023-04-28T06:37:07.997Z,9.64
2023-04-28T06:38:08.203Z,9.71
2023-04-28T06:39:08.356Z,9.76
2023-04-28T06:40:08.009Z,9.82
2023-04-28T06:41:06.443Z,9.88
2023-04-28T06:42:08.100Z,9.93
2023-04-28T06:43:08.254Z,9.96
2023-04-28T06:44:07.949Z,10.00
2023-04-28T06:45:08.146Z,10.06
2023-04-28T06:46:06.373Z,10.12
2023-04-28T06:47:08.086Z,10.19
2023-04-28T06:48:08.347Z,10.26
2023-04-28T06:49:07.918Z,10.33
2023-04-28T06:50:08.105Z,10.39
2023-04-28T06:51:06.294Z,10.40
2023-04-28T06:52:07.971Z,10.43
2023-04-28T06:53:08.100Z,10.46
2023-04-28T06:54:07.779Z,10.51
2023-04-28T06:55:07.944Z,10.55
2023-04-28T06:56:08.276Z,10.58
2023-04-28T06:57:07.789Z,10.60
2023-04-28T06:58:07.986Z,10.65
2023-04-28T06:59:08.142Z,10.70
2023-04-28T07:00:07.821Z,10.73
2023-04-28T07:01:08.106Z,10.73
2023-04-28T07:02:07.755Z,10.77
2023-04-28T07:03:08.044Z,10.80
2023-04-28T07:04:08.176Z,10.86
2023-04-28T07:05:07.710Z,10.92
2023-04-28T07:06:07.906Z,10.95
2023-04-28T07:07:08.059Z,10.96
2023-04-28T07:08:07.725Z,10.98
2023-04-28T07:09:08.159Z,10.99
2023-04-28T07:10:07.787Z,11.02
2023-04-28T07:11:07.960Z,11.03
2023-04-28T07:12:07.608Z,11.06
2023-04-28T07:13:07.793Z,11.06
2023-04-28T07:14:07.997Z,11.07
2023-04-28T07:15:10.007Z,11.07
2023-04-28T07:16:07.836Z,11.09
2023-04-28T07:17:07.521Z,11.13
2023-04-28T07:18:07.775Z,11.19
2023-04-28T07:19:07.863Z,11.25
2023-04-28T07:20:07.548Z,11.29
2023-04-28T07:21:07.724Z,11.32
2023-04-28T07:22:05.893Z,11.36
2023-04-28T07:23:07.561Z,11.36
2023-04-28T07:24:07.744Z,11.38
2023-04-28T07:25:07.398Z,11.44
2023-04-28T07:26:07.556Z,11.49
2023-04-28T07:27:05.833Z,11.54
2023-04-28T07:28:07.501Z,11.62
2023-04-28T07:29:07.758Z,11.65
2023-04-28T07:30:22.801Z,11.70
2023-04-28T07:31:08.522Z,11.72
2023-04-28T07:32:07.439Z,11.77
2023-04-28T07:33:07.534Z,11.78
2023-04-28T07:34:07.625Z,11.83
2023-04-28T07:35:07.281Z,11.87
2023-04-28T07:36:07.432Z,11.86
2023-04-28T07:37:05.977Z,11.87
2023-04-28T07:38:07.381Z,11.85
2023-04-28T07:39:07.553Z,11.87
2023-04-28T07:40:07.217Z,11.89
2023-04-28T07:41:08.834Z,11.94
2023-04-28T07:42:05.634Z,11.97
2023-04-28T07:43:07.280Z,12.04
2023-04-28T07:44:07.459Z,12.06
2023-04-28T07:45:08.110Z,12.08
2023-04-28T07:46:07.374Z,12.12
2023-04-28T07:47:06.540Z,12.21
2023-04-28T07:48:07.229Z,12.23
2023-04-28T07:49:07.377Z,12.26
2023-04-28T07:50:07.067Z,12.27
2023-04-28T07:51:07.253Z,12.30
2023-04-28T07:52:07.413Z,12.30
2023-04-28T07:53:07.069Z,12.30
2023-04-28T07:54:07.271Z,12.29
2023-04-28T07:55:06.988Z,12.31
2023-04-28T07:56:07.174Z,12.34
2023-04-28T07:57:07.365Z,12.37
2023-04-28T07:58:07.047Z,12.37
2023-04-28T07:59:07.229Z,12.39
2023-04-28T08:00:06.900Z,12.44
2023-04-28T08:01:07.204Z,12.46
2023-04-28T08:02:06.911Z,12.51
2023-04-28T08:03:07.227Z,12.59
2023-04-28T08:04:07.510Z,12.62
2023-04-28T08:05:07.031Z,12.67
2023-04-28T08:06:07.359Z,12.70
2023-04-28T08:07:07.181Z,12.74
2023-04-28T08:08:06.896Z,12.74
2023-04-28T08:09:07.052Z,12.78
2023-04-28T08:10:07.216Z,12.84
2023-04-28T08:11:06.889Z,12.89
2023-04-28T08:12:07.045Z,12.89
2023-04-28T08:13:05.211Z,12.95
2023-04-28T08:14:06.879Z,12.97
2023-04-28T08:15:07.079Z,12.99
2023-04-28T08:16:06.822Z,12.97
2023-04-28T08:17:06.929Z,12.97
2023-04-28T08:18:05.217Z,13.02
2023-04-28T08:19:06.885Z,13.11
2023-04-28T08:20:07.016Z,13.15
2023-04-28T08:21:06.708Z,13.21
2023-04-28T08:22:06.868Z,13.21
2023-04-28T08:23:05.075Z,13.25
2023-04-28T08:24:06.738Z,13.27
2023-04-28T08:25:06.886Z,13.32
2023-04-28T08:26:06.570Z,13.37
2023-04-28T08:27:06.747Z,13.46
2023-04-28T08:28:04.996Z,13.49
2023-04-28T08:29:06.669Z,13.54
2023-04-28T08:30:06.834Z,13.56
2023-04-28T08:31:06.522Z,13.67
2023-04-28T08:32:06.657Z,13.74
2023-04-28T08:33:06.243Z,13.80
2023-04-28T08:34:06.664Z,13.80
2023-04-28T08:35:06.845Z,13.89
2023-04-28T08:36:06.524Z,13.89
2023-04-28T08:37:06.725Z,13.94
2023-04-28T08:38:04.879Z,13.96
2023-04-28T08:39:06.531Z,13.98
2023-04-28T08:40:06.738Z,14.06
2023-04-28T08:41:06.400Z,14.10
2023-04-28T08:42:06.583Z,14.07
2023-04-28T08:43:05.717Z,14.09
2023-04-28T08:44:06.440Z,14.12
2023-04-28T08:45:06.603Z,14.16
2023-04-28T08:46:06.335Z,14.20
2023-04-28T08:47:06.482Z,14.24
2023-04-28T08:48:06.738Z,14.25
2023-04-28T08:49:06.348Z,14.28
2023-04-28T08:50:06.509Z,14.32
2023-04-28T08:51:06.692Z,14.37
2023-04-28T08:52:06.462Z,14.39
2023-04-28T08:53:06.508Z,14.44
2023-04-28T08:55:06.357Z,14.60
2023-04-28T08:56:06.542Z,14.61
2023-04-28T08:57:06.254Z,14.64
2023-04-28T08:58:06.456Z,14.64
2023-04-28T08:59:06.608Z,14.67
2023-04-28T09:00:06.272Z,14.75
2023-04-28T09:01:06.437Z,14.78
2023-04-28T09:02:06.210Z,14.78
2023-04-28T09:03:06.337Z,14.75
2023-04-28T09:04:06.761Z,14.78
2023-04-28T09:05:06.268Z,14.78
2023-04-28T09:06:06.372Z,14.80
2023-04-28T09:07:06.459Z,14.83
2023-04-28T09:08:06.123Z,14.87
2023-04-28T09:09:06.282Z,14.90
2023-04-28T09:10:05.959Z,14.87
2023-04-28T09:11:06.133Z,14.87
2023-04-28T09:12:06.407Z,14.90
2023-04-28T09:13:05.998Z,14.83
2023-04-28T09:14:06.183Z,14.88
2023-04-28T09:15:06.363Z,14.93
2023-04-28T09:16:06.083Z,14.98
2023-04-28T09:17:11.484Z,15.02
2023-04-28T09:18:06.249Z,15.11
2023-04-28T09:19:06.330Z,15.15
2023-04-28T09:20:06.020Z,15.21
2023-04-28T09:21:06.187Z,15.28
2023-04-28T09:22:24.125Z,15.31
2023-04-28T09:23:07.088Z,15.38
2023-04-28T09:24:06.256Z,15.33
2023-04-28T09:25:05.913Z,15.36
2023-04-28T09:26:06.084Z,15.46
2023-04-28T09:27:05.775Z,15.51
2023-04-28T09:28:06.011Z,15.52
2023-04-28T09:29:06.180Z,15.59
2023-04-28T09:30:05.861Z,15.66
2023-04-28T09:31:06.041Z,15.75
2023-04-28T09:32:05.747Z,15.79
2023-04-28T09:33:05.914Z,15.74
2023-04-28T09:34:06.034Z,15.76
2023-04-28T09:35:05.707Z,15.72
2023-04-28T09:36:05.853Z,15.72
2023-04-28T09:37:06.030Z,15.70
2023-04-28T09:38:05.696Z,15.70
2023-04-28T09:39:05.872Z,15.76
2023-04-28T09:40:06.101Z,15.82
2023-04-28T09:41:05.781Z,15.88
2023-04-28T09:42:05.957Z,15.78
2023-04-28T09:43:18.690Z,15.82
2023-04-28T09:44:06.813Z,15.79
2023-04-28T09:45:06.022Z,15.89
2023-04-28T09:46:05.760Z,15.97
2023-04-28T09:47:05.841Z,16.07
2023-04-28T09:48:05.530Z,16.09
2023-04-28T09:49:05.669Z,16.09
2023-04-28T09:50:05.841Z,16.00
2023-04-28T09:51:05.527Z,16.01
2023-04-28T09:52:05.693Z,16.06
2023-04-28T09:53:05.894Z,16.11
2023-04-28T09:54:05.554Z,16.15
2023-04-28T09:55:05.742Z,16.12
2023-04-28T09:56:05.469Z,16.12
2023-04-28T09:57:05.688Z,16.09
2023-04-28T09:58:05.769Z,16.11
2023-04-28T09:59:05.458Z,16.16
2023-04-28T10:00:05.634Z,16.25
2023-04-28T10:01:05.303Z,16.34
2023-04-28T10:02:17.407Z,16.44
2023-04-28T10:03:06.709Z,16.52
2023-04-28T10:04:05.383Z,16.53
2023-04-28T10:05:05.624Z,16.55
2023-04-28T10:06:05.655Z,16.52
2023-04-28T10:07:05.368Z,16.59
2023-04-28T10:08:05.516Z,16.63
2023-04-28T10:09:05.242Z,16.71
2023-04-28T10:10:05.627Z,16.70
2023-04-28T10:11:05.596Z,16.67
2023-04-28T10:12:05.297Z,16.67
2023-04-28T10:13:05.468Z,16.68
2023-04-28T10:14:05.146Z,16.78
2023-04-28T10:15:05.326Z,16.89
2023-04-28T10:16:05.523Z,16.93
2023-04-28T10:17:05.159Z,16.89
2023-04-28T10:18:05.374Z,16.90
2023-04-28T10:19:03.533Z,16.92
2023-04-28T10:20:05.382Z,16.98
2023-04-28T10:21:05.390Z,17.03
2023-04-28T10:22:05.074Z,17.07
2023-04-28T10:23:05.238Z,17.14
2023-04-28T10:24:05.413Z,17.23
2023-04-28T10:25:05.093Z,17.32
2023-04-28T10:26:05.280Z,17.36
2023-04-28T10:27:05.473Z,17.35
2023-04-28T10:28:05.128Z,17.43
2023-04-28T10:29:05.299Z,17.46
2023-04-28T10:30:08.315Z,17.48
2023-04-28T10:31:06.192Z,17.55
2023-04-28T10:32:05.352Z,17.66
2023-04-28T10:33:05.102Z,17.82
2023-04-28T10:34:05.204Z,17.88
2023-04-28T10:35:04.897Z,17.81
2023-04-28T10:36:05.084Z,17.79
2023-04-28T10:37:05.237Z,17.84
2023-04-28T10:38:04.896Z,17.79
2023-04-28T10:39:05.075Z,17.78
2023-04-28T10:40:06.740Z,17.69
2023-04-28T10:41:04.986Z,17.74
2023-04-28T10:42:05.166Z,17.76
2023-04-28T10:43:04.861Z,17.81
2023-04-28T10:44:05.038Z,17.82
2023-04-28T10:45:05.231Z,17.89
2023-04-28T10:46:04.917Z,17.94
2023-04-28T10:47:05.039Z,17.94
2023-04-28T10:48:04.770Z,17.97
2023-04-28T10:49:04.884Z,17.99
2023-04-28T10:50:04.037Z,17.97
2023-04-28T10:51:04.715Z,17.97
2023-04-28T10:52:04.875Z,18.03
2023-04-28T10:53:05.078Z,18.12
2023-04-28T10:54:04.754Z,18.06
2023-04-28T10:55:15.831Z,18.04
2023-04-28T10:56:06.055Z,18.04
2023-04-28T10:57:04.746Z,18.15
2023-04-28T10:58:04.936Z,18.12
2023-04-28T10:59:04.594Z,18.19
2023-04-28T11:00:04.843Z,18.25
2023-04-28T11:01:04.964Z,18.37
2023-04-28T11:02:04.807Z,18.44
2023-04-28T11:03:04.953Z,18.49
2023-04-28T11:04:05.060Z,18.46
2023-04-28T11:05:04.781Z,18.42
2023-04-28T11:06:04.805Z,18.47
2023-04-28T11:07:04.490Z,18.50
2023-04-28T11:08:04.684Z,18.55
2023-04-28T11:09:04.867Z,18.57
2023-04-28T11:10:04.514Z,18.57
2023-04-28T11:11:04.681Z,18.58
2023-04-28T11:12:04.872Z,18.58
2023-04-28T11:13:04.523Z,18.57
2023-04-28T11:14:04.677Z,18.47
2023-04-28T11:15:04.419Z,18.46
2023-04-28T11:16:04.579Z,18.40
2023-04-28T11:17:04.724Z,18.47
2023-04-28T11:18:04.482Z,18.59
2023-04-28T11:19:04.698Z,18.59
2023-04-28T11:20:04.716Z,18.65
2023-04-28T11:21:04.403Z,18.77
2023-04-28T11:22:04.580Z,18.82
2023-04-28T11:23:04.260Z,18.97
2023-04-28T11:24:04.420Z,19.01
2023-04-28T11:25:04.593Z,19.11
2023-04-28T11:26:02.681Z,19.17
2023-04-28T11:27:04.369Z,19.24
2023-04-28T11:28:04.546Z,19.32
2023-04-28T11:29:04.214Z,19.33
2023-04-28T11:30:04.384Z,19.33
2023-04-28T11:31:02.608Z,19.40
2023-04-28T11:32:04.367Z,19.50
2023-04-28T11:33:04.444Z,19.53
2023-04-28T11:34:04.218Z,19.51
2023-04-28T11:35:04.438Z,19.54
2023-04-28T11:36:02.529Z,19.60
2023-04-28T11:37:04.190Z,19.58
2023-04-28T11:38:04.392Z,19.61
2023-04-28T11:39:04.058Z,19.63
2023-04-28T11:40:04.234Z,19.65
2023-04-28T11:41:04.409Z,19.68
2023-04-28T11:42:04.034Z,19.72
2023-04-28T11:43:04.231Z,19.68
2023-04-28T11:44:04.368Z,19.65
2023-04-28T11:45:04.050Z,19.55
2023-04-28T11:46:04.213Z,19.58
2023-04-28T11:47:04.678Z,19.63
2023-04-28T11:48:04.088Z,19.69
2023-04-28T11:49:04.226Z,19.78
2023-04-28T11:50:04.933Z,19.83
2023-04-28T11:51:04.069Z,19.83
2023-04-28T11:52:04.263Z,19.87
2023-04-28T11:53:03.947Z,19.93
2023-04-28T11:54:04.098Z,19.90
2023-04-28T11:55:04.334Z,19.91
2023-04-28T11:56:03.931Z,19.98
2023-04-28T11:57:04.218Z,20.08
2023-04-28T11:58:03.807Z,20.13
2023-04-28T11:59:04.170Z,20.18
2023-04-28T12:00:04.185Z,20.18
2023-04-28T12:01:03.868Z,20.16
2023-04-28T12:02:04.081Z,20.09
2023-04-28T12:03:03.827Z,20.06
2023-04-28T12:04:04.013Z,20.06
2023-04-28T12:05:04.112Z,20.05
2023-04-28T12:06:04.302Z,20.02
2023-04-28T12:07:03.838Z,19.98
2023-04-28T12:08:04.042Z,19.97
2023-04-28T12:09:03.718Z,20.00
2023-04-28T12:10:03.904Z,20.00
2023-04-28T12:11:04.105Z,19.98
2023-04-28T12:12:03.695Z,20.02
2023-04-28T12:13:03.845Z,20.00
2023-04-28T12:14:04.008Z,19.91
2023-04-28T12:15:03.704Z,19.88
2023-04-28T12:16:03.950Z,19.87
2023-04-28T12:17:03.550Z,19.78
2023-04-28T12:18:03.777Z,19.80
2023-04-28T12:19:03.895Z,19.80
2023-04-28T12:20:03.562Z,19.80
2023-04-28T12:21:03.746Z,19.84
2023-04-28T12:22:01.991Z,19.88
2023-04-28T12:23:03.618Z,19.93
2023-04-28T12:24:03.793Z,19.98
2023-04-28T12:25:03.470Z,20.08
2023-04-28T12:26:03.702Z,20.06
2023-04-28T12:27:01.881Z,20.02
2023-04-28T12:28:03.529Z,20.03
2023-04-28T12:29:03.711Z,20.05
2023-04-28T12:30:03.388Z,20.08
2023-04-28T12:31:03.611Z,20.13
2023-04-28T12:32:02.740Z,20.20
2023-04-28T12:33:03.448Z,20.20
2023-04-28T12:34:03.595Z,20.20
2023-04-28T12:35:03.785Z,20.18
2023-04-28T12:36:03.427Z,20.18
2023-04-28T12:37:04.085Z,20.15
2023-04-28T12:38:03.244Z,20.13
2023-04-28T12:39:03.410Z,20.18
2023-04-28T12:40:03.594Z,20.15
2023-04-28T12:41:03.261Z,20.16
2023-04-28T12:42:04.456Z,20.24
2023-04-28T12:43:03.623Z,20.23
2023-04-28T12:44:03.312Z,20.20
2023-04-28T12:45:03.488Z,20.13
2023-04-28T12:46:03.349Z,20.09
2023-04-28T12:47:03.514Z,20.08
2023-04-28T12:48:03.201Z,20.05
2023-04-28T12:49:03.349Z,20.03
2023-04-28T12:50:03.510Z,20.03
2023-04-28T12:51:03.225Z,20.03
2023-04-28T12:52:03.364Z,20.06
2023-04-28T12:53:03.066Z,20.05
2023-04-28T12:54:03.214Z,19.97
2023-04-28T12:55:03.478Z,20.02
2023-04-28T12:56:03.065Z,19.98
2023-04-28T12:57:03.269Z,20.02
2023-04-28T12:58:03.417Z,20.00
2023-04-28T12:59:03.096Z,20.03
2023-04-28T13:00:03.269Z,20.03
2023-04-28T13:01:02.420Z,20.10
2023-04-28T13:02:03.274Z,20.13
2023-04-28T13:03:03.424Z,20.09
2023-04-28T13:04:03.028Z,20.16
2023-04-28T13:05:03.517Z,20.12
2023-04-28T13:06:03.291Z,20.13